Terminal Aerodrome Forecast
Issued by NWS

Home | Current Version | Previous Version | Text Only | Print | Product List | Glossary On
Versions: 1 2 3 4 5 6 7 8 9 10 11 12 13
314
FTUS43 KOAX 181120
TAFCDR
TAF
KCDR 181120Z 1812/1912 25008KT P6SM BKN200
     FM181800 27008KT P6SM BKN150
     FM190000 23006KT P6SM BKN150=

USA.gov is the U.S. government's official web portal to all federal, state and local government web resources and services.